createdAt,value
2022-11-29T00:02:25.295Z,28.76
2022-11-29T00:04:58.456Z,28.77
2022-11-29T00:07:29.092Z,28.85
2022-11-29T00:10:00.442Z,28.73
2022-11-29T00:12:31.149Z,28.79
2022-11-29T00:15:01.369Z,28.81
2022-11-29T00:17:31.934Z,28.98
2022-11-29T00:20:02.879Z,29.12
2022-11-29T00:22:33.369Z,29.09
2022-11-29T00:25:04.295Z,29.11
2022-11-29T00:27:35.015Z,29.27
2022-11-29T00:30:06.019Z,29.37
2022-11-29T00:32:37.381Z,29.40
2022-11-29T00:35:13.324Z,29.55
2022-11-29T00:37:43.889Z,29.56
2022-11-29T00:40:14.514Z,29.67
2022-11-29T00:42:48.245Z,29.79
2022-11-29T00:45:18.765Z,29.89
2022-11-29T00:47:49.327Z,29.91
2022-11-29T00:50:28.930Z,29.92
2022-11-29T00:52:59.457Z,30.00
2022-11-29T00:55:30.396Z,30.04
2022-11-29T00:58:00.992Z,30.14
2022-11-29T01:00:31.759Z,30.20
2022-11-29T01:03:03.352Z,30.28
2022-11-29T01:05:34.688Z,30.27
2022-11-29T01:08:06.063Z,30.30
2022-11-29T01:10:36.670Z,30.33
2022-11-29T01:13:07.661Z,30.42
2022-11-29T01:15:38.427Z,30.43
2022-11-29T01:18:09.494Z,30.46
2022-11-29T01:20:39.909Z,30.48
2022-11-29T01:23:10.446Z,30.53
2022-11-29T01:25:40.891Z,30.53
2022-11-29T01:28:11.425Z,30.57
2022-11-29T01:30:41.913Z,30.50
2022-11-29T01:33:12.719Z,30.56
2022-11-29T01:35:52.090Z,30.62
2022-11-29T01:38:25.435Z,30.67
2022-11-29T01:41:05.107Z,30.72
2022-11-29T01:43:52.314Z,30.83
2022-11-29T01:46:25.293Z,30.90
2022-11-29T01:48:58.524Z,30.95
2022-11-29T01:51:30.108Z,30.91
2022-11-29T01:54:03.013Z,31.01
2022-11-29T01:56:35.028Z,31.04
2022-11-29T01:59:09.394Z,31.04
2022-11-29T02:01:40.538Z,31.10
2022-11-29T02:04:12.164Z,31.20
2022-11-29T02:06:43.131Z,31.14
2022-11-29T02:09:21.643Z,31.18
2022-11-29T02:12:03.880Z,31.30
2022-11-29T02:15:09.013Z,31.50
2022-11-29T02:17:55.780Z,31.46
2022-11-29T02:21:02.441Z,31.47
2022-11-29T02:24:05.591Z,31.42
2022-11-29T02:26:57.363Z,31.38
2022-11-29T02:30:01.317Z,31.46
2022-11-29T02:32:50.014Z,31.51
2022-11-29T02:35:53.908Z,31.69
2022-11-29T02:38:24.242Z,31.65
2022-11-29T02:41:07.287Z,31.60
2022-11-29T02:44:14.083Z,31.64
2022-11-29T02:46:51.456Z,31.57
2022-11-29T02:49:39.899Z,31.57
2022-11-29T02:52:34.231Z,31.56
2022-11-29T02:55:49.507Z,31.60
2022-11-29T02:58:37.607Z,31.61
2022-11-29T03:01:23.101Z,31.54
2022-11-29T03:03:56.450Z,31.67
2022-11-29T03:06:55.615Z,31.56
2022-11-29T03:09:32.255Z,31.51
2022-11-29T03:12:05.606Z,31.49
2022-11-29T03:15:03.468Z,31.49
2022-11-29T03:18:24.771Z,31.48
2022-11-29T03:21:20.701Z,31.52
2022-11-29T03:23:58.908Z,31.58
2022-11-29T03:27:00.517Z,31.64
2022-11-29T03:29:55.681Z,31.62
2022-11-29T03:32:42.012Z,31.67
2022-11-29T03:35:57.118Z,31.79
2022-11-29T03:38:46.936Z,31.83
2022-11-29T03:41:19.973Z,31.78
2022-11-29T03:44:28.067Z,31.73
2022-11-29T03:47:06.292Z,31.69
2022-11-29T03:50:12.002Z,31.70
2022-11-29T03:52:54.032Z,31.77
2022-11-29T03:56:11.369Z,31.76
2022-11-29T03:58:51.514Z,31.82
2022-11-29T04:01:43.867Z,31.88
2022-11-29T04:04:27.014Z,31.87
2022-11-29T04:07:12.594Z,31.90
2022-11-29T04:10:05.623Z,31.92
2022-11-29T04:13:10.602Z,31.90
2022-11-29T04:16:08.542Z,31.87
2022-11-29T04:18:58.671Z,31.83
2022-11-29T04:21:35.577Z,31.81
2022-11-29T04:24:27.759Z,31.84
2022-11-29T04:27:12.862Z,31.82
2022-11-29T04:29:52.359Z,31.81
2022-11-29T04:32:44.017Z,31.83
2022-11-29T04:35:20.442Z,31.81
2022-11-29T04:38:02.450Z,31.83
2022-11-29T04:40:44.246Z,31.81
2022-11-29T04:43:41.252Z,31.81
2022-11-29T04:46:21.432Z,31.82
2022-11-29T04:48:54.457Z,31.86
2022-11-29T04:51:33.386Z,31.93
2022-11-29T04:54:12.559Z,31.94
2022-11-29T04:56:45.195Z,31.97
2022-11-29T04:59:54.041Z,32.01
2022-11-29T05:02:34.202Z,32.04
2022-11-29T05:05:29.241Z,32.05
2022-11-29T05:08:26.516Z,32.08
2022-11-29T05:11:26.344Z,32.23
2022-11-29T05:14:00.678Z,32.26
2022-11-29T05:16:49.762Z,32.33
2022-11-29T05:19:35.236Z,32.31
2022-11-29T05:22:26.568Z,32.55
2022-11-29T05:25:02.172Z,32.69
2022-11-29T05:28:04.469Z,32.95
2022-11-29T05:31:06.114Z,33.05
2022-11-29T05:34:13.311Z,33.27
2022-11-29T05:37:10.424Z,33.40
2022-11-29T05:39:59.666Z,33.54
2022-11-29T05:42:40.522Z,33.66
2022-11-29T05:45:25.082Z,33.77
2022-11-29T05:48:26.622Z,33.85
2022-11-29T05:51:07.291Z,33.69
2022-11-29T05:53:48.953Z,33.57
2022-11-29T05:56:49.453Z,33.57
2022-11-29T05:59:26.001Z,33.53
2022-11-29T06:02:30.682Z,33.78
2022-11-29T06:05:32.620Z,33.76
2022-11-29T06:08:35.221Z,33.69
2022-11-29T06:11:28.640Z,33.69
2022-11-29T06:14:21.821Z,33.62
2022-11-29T06:16:53.013Z,33.57
2022-11-29T06:19:54.045Z,33.45
2022-11-29T06:22:35.258Z,33.39
2022-11-29T06:26:03.688Z,33.32
2022-11-29T06:28:56.808Z,33.37
2022-11-29T06:31:34.813Z,33.40
2022-11-29T06:34:11.362Z,33.45
2022-11-29T06:37:04.205Z,33.46
2022-11-29T06:39:35.957Z,33.32
2022-11-29T06:42:06.863Z,33.31
2022-11-29T06:44:37.939Z,33.28
2022-11-29T06:47:32.384Z,33.28
2022-11-29T06:50:26.124Z,33.21
2022-11-29T06:53:17.494Z,33.21
2022-11-29T06:56:00.019Z,33.17
2022-11-29T06:58:36.383Z,33.18
2022-11-29T07:01:28.591Z,33.16
2022-11-29T07:04:52.610Z,33.18
2022-11-29T07:07:25.236Z,33.09
2022-11-29T07:10:00.472Z,33.04
2022-11-29T07:12:31.683Z,33.06
2022-11-29T07:15:02.571Z,33.03
2022-11-29T07:17:41.044Z,33.02
2022-11-29T07:20:23.680Z,33.03
2022-11-29T07:23:15.303Z,33.06
2022-11-29T07:25:51.192Z,32.98
2022-11-29T07:28:27.695Z,32.92
2022-11-29T07:31:31.783Z,32.96
2022-11-29T07:34:19.977Z,32.91
2022-11-29T07:37:12.616Z,32.95
2022-11-29T07:40:04.933Z,32.94
2022-11-29T07:42:45.258Z,32.89
2022-11-29T07:45:27.731Z,32.89
2022-11-29T07:47:58.212Z,32.91
2022-11-29T07:50:29.417Z,32.92
2022-11-29T07:53:01.071Z,32.94
2022-11-29T07:55:33.368Z,32.94
2022-11-29T07:58:06.737Z,32.94
2022-11-29T08:00:37.413Z,32.92
2022-11-29T08:03:07.782Z,32.89
2022-11-29T08:05:39.602Z,32.91
2022-11-29T08:08:10.733Z,32.91
2022-11-29T08:10:42.060Z,32.88
2022-11-29T08:13:12.819Z,32.88
2022-11-29T08:15:46.852Z,32.90
2022-11-29T08:18:17.794Z,32.87
2022-11-29T08:20:48.876Z,32.87
2022-11-29T08:23:19.145Z,32.88
2022-11-29T08:25:50.338Z,32.87
2022-11-29T08:28:20.632Z,32.86
2022-11-29T08:30:51.193Z,32.87
2022-11-29T08:33:21.455Z,32.87
2022-11-29T08:35:51.963Z,32.86
2022-11-29T08:38:25.054Z,32.85
2022-11-29T08:40:57.931Z,32.87
2022-11-29T08:43:29.186Z,32.81
2022-11-29T08:46:00.949Z,32.77
2022-11-29T08:48:31.869Z,32.80
2022-11-29T08:51:02.871Z,32.78
2022-11-29T08:53:42.572Z,32.69
2022-11-29T08:57:04.534Z,32.76
2022-11-29T08:59:07.569Z,32.78
2022-11-29T09:01:37.949Z,32.71
2022-11-29T09:04:11.591Z,32.64
2022-11-29T09:06:46.367Z,32.64
2022-11-29T09:09:17.420Z,32.60
2022-11-29T09:11:49.562Z,32.60
2022-11-29T09:14:23.168Z,32.54
2022-11-29T09:16:53.992Z,32.53
2022-11-29T09:19:28.378Z,32.53
2022-11-29T09:22:02.298Z,32.49
2022-11-29T09:24:35.286Z,32.46
2022-11-29T09:27:05.602Z,32.43
2022-11-29T09:29:36.209Z,32.40
2022-11-29T09:32:07.698Z,32.39
2022-11-29T09:34:38.448Z,32.38
2022-11-29T09:37:08.962Z,32.37
2022-11-29T09:39:41.188Z,32.36
2022-11-29T09:42:32.656Z,32.34
2022-11-29T09:45:03.263Z,32.32
2022-11-29T09:47:40.670Z,32.33
2022-11-29T09:50:44.144Z,32.33
2022-11-29T09:53:48.455Z,32.33
2022-11-29T09:56:46.141Z,32.32
2022-11-29T09:59:43.760Z,32.28
2022-11-29T10:02:35.489Z,32.18
2022-11-29T10:05:50.705Z,32.20
2022-11-29T10:08:34.923Z,32.17
2022-11-29T10:11:18.888Z,32.16
2022-11-29T10:13:55.180Z,32.06
2022-11-29T10:16:34.796Z,32.09
2022-11-29T10:19:44.470Z,32.10
2022-11-29T10:22:14.869Z,32.08
2022-11-29T10:24:48.657Z,32.06
2022-11-29T10:27:22.163Z,32.06
2022-11-29T10:29:53.548Z,31.98
2022-11-29T10:32:25.809Z,31.99
2022-11-29T10:34:58.505Z,31.98
2022-11-29T10:37:33.657Z,31.93
2022-11-29T10:40:09.032Z,31.90
2022-11-29T10:42:55.087Z,31.87
2022-11-29T10:45:31.605Z,31.91
2022-11-29T10:48:12.026Z,31.87
2022-11-29T10:50:45.051Z,31.85
2022-11-29T10:53:25.137Z,31.84
2022-11-29T10:56:07.254Z,31.84
2022-11-29T10:58:38.431Z,31.82
2022-11-29T11:01:10.213Z,31.81
2022-11-29T11:03:43.109Z,31.77
2022-11-29T11:06:19.973Z,31.77
2022-11-29T11:08:56.919Z,31.72
2022-11-29T11:11:33.533Z,31.70
2022-11-29T11:14:28.633Z,31.62
2022-11-29T11:17:27.158Z,31.70
2022-11-29T11:20:06.623Z,31.63
2022-11-29T11:22:40.783Z,31.74
2022-11-29T11:25:29.835Z,31.81
2022-11-29T11:28:14.692Z,31.86
2022-11-29T11:30:59.052Z,31.84
2022-11-29T11:33:32.252Z,31.84
2022-11-29T11:36:10.799Z,31.85
2022-11-29T11:39:13.053Z,31.89
2022-11-29T11:42:02.541Z,31.86
2022-11-29T11:44:49.216Z,31.85
2022-11-29T11:47:28.260Z,31.88
2022-11-29T11:50:13.557Z,31.86
2022-11-29T11:52:54.163Z,31.86
2022-11-29T11:55:38.318Z,31.85
2022-11-29T11:58:14.806Z,31.81
2022-11-29T12:01:07.587Z,31.82
2022-11-29T12:04:01.037Z,31.83
2022-11-29T12:06:31.355Z,31.78
2022-11-29T12:09:27.690Z,31.78
2022-11-29T12:12:21.969Z,31.79
2022-11-29T12:14:57.598Z,31.76
2022-11-29T12:17:39.494Z,31.74
2022-11-29T12:20:29.511Z,31.74
2022-11-29T12:23:16.068Z,31.74
2022-11-29T12:26:07.202Z,31.63
2022-11-29T12:28:41.780Z,31.63
2022-11-29T12:31:18.346Z,31.64
2022-11-29T12:34:15.776Z,31.72
2022-11-29T12:37:11.340Z,31.67
2022-11-29T12:39:59.550Z,31.71
2022-11-29T12:43:01.031Z,31.73
2022-11-29T12:45:36.832Z,31.70
2022-11-29T12:48:44.078Z,31.74
2022-11-29T12:51:37.079Z,31.70
2022-11-29T12:54:21.800Z,31.72
2022-11-29T12:57:44.210Z,31.73
2022-11-29T13:00:20.398Z,31.72
2022-11-29T13:02:51.221Z,31.73
2022-11-29T13:05:44.767Z,31.73
2022-11-29T13:08:34.709Z,31.71
2022-11-29T13:11:10.593Z,31.68
2022-11-29T13:14:03.808Z,31.70
2022-11-29T13:17:06.846Z,31.69
2022-11-29T13:19:46.136Z,31.70
2022-11-29T13:22:29.445Z,31.69
2022-11-29T13:25:05.578Z,31.67
2022-11-29T13:27:42.050Z,31.67
2022-11-29T13:30:16.694Z,31.67
2022-11-29T13:32:52.914Z,31.67
2022-11-29T13:35:35.836Z,31.69
2022-11-29T13:38:35.514Z,31.65
2022-11-29T13:41:28.958Z,31.65
2022-11-29T13:44:26.536Z,31.61
2022-11-29T13:47:10.674Z,31.60
2022-11-29T13:50:03.398Z,31.58
2022-11-29T13:52:43.395Z,31.54
2022-11-29T13:55:29.542Z,31.52
2022-11-29T13:58:20.936Z,31.51
2022-11-29T14:00:53.180Z,31.47
2022-11-29T14:03:31.033Z,31.47
2022-11-29T14:06:13.692Z,31.49
2022-11-29T14:11:44.900Z,31.42
2022-11-29T14:14:18.039Z,31.38
2022-11-29T14:16:52.309Z,31.38
2022-11-29T14:19:27.627Z,31.33
2022-11-29T14:22:09.045Z,31.35
2022-11-29T14:24:50.307Z,31.35
2022-11-29T14:27:31.681Z,31.34
2022-11-29T14:30:32.192Z,31.34
2022-11-29T14:33:50.453Z,31.31
2022-11-29T14:36:57.663Z,31.31
2022-11-29T14:39:49.617Z,31.28
2022-11-29T14:42:41.027Z,31.21
2022-11-29T14:45:32.925Z,31.21
2022-11-29T14:48:14.149Z,31.20
2022-11-29T14:51:21.891Z,31.22
2022-11-29T14:54:23.807Z,31.19
2022-11-29T14:56:58.530Z,31.16
2022-11-29T14:59:50.465Z,31.10
2022-11-29T15:06:01.996Z,31.09
2022-11-29T15:09:15.716Z,31.05
2022-11-29T15:12:31.845Z,31.07
2022-11-29T15:15:40.405Z,31.06
2022-11-29T15:18:52.494Z,31.04
2022-11-29T15:22:15.579Z,31.01
2022-11-29T15:25:02.298Z,30.95
2022-11-29T15:27:50.401Z,30.95
2022-11-29T15:30:32.965Z,30.99
2022-11-29T15:33:13.223Z,30.98
2022-11-29T15:35:57.506Z,30.97
2022-11-29T15:38:33.692Z,30.97
2022-11-29T15:41:12.417Z,30.94
2022-11-29T15:44:10.112Z,30.97
2022-11-29T15:46:43.924Z,30.92
2022-11-29T15:49:33.763Z,30.94
2022-11-29T15:52:20.071Z,30.93
2022-11-29T15:55:03.425Z,30.91
2022-11-29T15:57:41.256Z,30.90
2022-11-29T16:00:28.786Z,30.89
2022-11-29T16:03:14.841Z,30.87
2022-11-29T16:05:59.703Z,30.87
2022-11-29T16:08:47.884Z,30.86
2022-11-29T16:11:28.921Z,30.85
2022-11-29T16:14:34.196Z,30.86
2022-11-29T16:17:23.463Z,30.82
2022-11-29T16:20:25.625Z,30.88
2022-11-29T16:23:40.661Z,30.86
2022-11-29T16:26:46.762Z,30.79
2022-11-29T16:29:41.596Z,30.81
2022-11-29T16:32:36.815Z,30.85
2022-11-29T16:35:38.461Z,30.83
2022-11-29T16:38:48.845Z,30.79
2022-11-29T16:41:48.694Z,30.79
2022-11-29T16:44:56.104Z,30.82
2022-11-29T16:48:00.026Z,30.72
2022-11-29T16:50:58.896Z,30.58
2022-11-29T16:53:57.756Z,30.50
2022-11-29T16:56:39.750Z,30.40
2022-11-29T16:59:27.594Z,30.39
2022-11-29T17:02:17.402Z,30.37
2022-11-29T17:04:56.570Z,30.30
2022-11-29T17:07:40.176Z,30.31
2022-11-29T17:10:20.369Z,30.29
2022-11-29T17:12:53.598Z,30.28
2022-11-29T17:15:26.000Z,30.27
2022-11-29T17:17:58.948Z,30.24
2022-11-29T17:20:31.855Z,30.20
2022-11-29T17:23:05.979Z,30.23
2022-11-29T17:25:38.407Z,30.19
2022-11-29T17:28:11.129Z,30.16
2022-11-29T17:30:43.532Z,30.12
2022-11-29T17:33:17.204Z,30.14
2022-11-29T17:35:50.203Z,30.08
2022-11-29T17:38:22.816Z,30.11
2022-11-29T17:40:55.430Z,30.10
2022-11-29T17:43:29.073Z,30.06
2022-11-29T17:46:12.924Z,30.09
2022-11-29T17:48:48.716Z,30.09
2022-11-29T17:51:50.548Z,30.03
2022-11-29T17:54:20.467Z,30.05
2022-11-29T17:56:53.664Z,30.05
2022-11-29T17:59:28.037Z,30.01
2022-11-29T18:02:00.666Z,29.97
2022-11-29T18:04:38.869Z,29.97
2022-11-29T18:07:11.786Z,29.98
2022-11-29T18:09:44.447Z,29.94
2022-11-29T18:12:17.236Z,29.95
2022-11-29T18:14:53.850Z,29.95
2022-11-29T18:17:26.649Z,29.90
2022-11-29T18:19:59.294Z,29.89
2022-11-29T18:22:31.956Z,29.90
2022-11-29T18:25:30.753Z,29.91
2022-11-29T18:27:57.225Z,29.87
2022-11-29T18:30:30.291Z,29.88
2022-11-29T18:33:02.834Z,29.87
2022-11-29T18:35:35.424Z,29.85
2022-11-29T18:38:16.423Z,29.82
2022-11-29T18:40:49.225Z,29.80
2022-11-29T18:43:21.781Z,29.82
2022-11-29T18:45:57.756Z,29.81
2022-11-29T18:48:32.648Z,29.86
2022-11-29T18:51:08.523Z,29.86
2022-11-29T18:53:41.376Z,29.81
2022-11-29T18:56:17.092Z,29.79
2022-11-29T18:58:58.199Z,29.78
2022-11-29T19:01:33.176Z,29.80
2022-11-29T19:04:05.405Z,29.78
2022-11-29T19:06:39.942Z,29.78
2022-11-29T19:09:17.692Z,29.76
2022-11-29T19:11:53.057Z,29.72
2022-11-29T19:14:25.360Z,29.72
2022-11-29T19:16:57.728Z,29.73
2022-11-29T19:19:34.234Z,29.73
2022-11-29T19:22:06.812Z,29.72
2022-11-29T19:24:39.197Z,29.70
2022-11-29T19:27:12.060Z,29.64
2022-11-29T19:29:44.363Z,29.60
2022-11-29T19:32:16.564Z,29.66
2022-11-29T19:34:49.463Z,29.64
2022-11-29T19:37:22.304Z,29.62
2022-11-29T19:39:55.120Z,29.58
2022-11-29T19:42:28.083Z,29.54
2022-11-29T19:45:19.482Z,29.56
2022-11-29T19:47:50.956Z,29.54
2022-11-29T19:50:21.594Z,29.52
2022-11-29T19:52:52.415Z,29.52
2022-11-29T19:55:23.095Z,29.50
2022-11-29T19:57:54.327Z,29.52
2022-11-29T20:00:24.882Z,29.49
2022-11-29T20:02:56.178Z,29.46
2022-11-29T20:05:28.153Z,29.46
2022-11-29T20:07:58.469Z,29.46
2022-11-29T20:10:29.210Z,29.43
2022-11-29T20:12:59.553Z,29.44
2022-11-29T20:15:30.281Z,29.43
2022-11-29T20:18:04.025Z,29.46
2022-11-29T20:20:35.250Z,29.43
2022-11-29T20:23:06.004Z,29.44
2022-11-29T20:25:37.323Z,29.33
2022-11-29T20:28:07.994Z,29.37
2022-11-29T20:30:38.561Z,29.39
2022-11-29T20:33:10.664Z,29.32
2022-11-29T20:35:41.777Z,29.35
2022-11-29T20:38:35.602Z,29.38
2022-11-29T20:41:22.341Z,29.33
2022-11-29T20:44:33.536Z,29.31
2022-11-29T20:48:12.120Z,29.32
2022-11-29T20:50:45.587Z,29.30
2022-11-29T20:53:30.930Z,29.30
2022-11-29T20:56:01.666Z,29.26
2022-11-29T20:58:32.443Z,29.22
2022-11-29T21:01:04.893Z,29.26
2022-11-29T21:03:35.877Z,29.28
2022-11-29T21:06:07.578Z,29.24
2022-11-29T21:08:38.717Z,29.20
2022-11-29T21:11:11.230Z,29.23
2022-11-29T21:13:42.650Z,29.24
2022-11-29T21:16:14.455Z,29.20
2022-11-29T21:18:45.452Z,29.24
2022-11-29T21:21:30.628Z,29.27
2022-11-29T21:24:04.851Z,29.21
2022-11-29T21:26:44.338Z,29.16
2022-11-29T21:29:22.137Z,29.14
2022-11-29T21:31:54.884Z,29.20
2022-11-29T21:34:25.104Z,29.20
2022-11-29T21:36:58.546Z,29.20
2022-11-29T21:39:35.702Z,29.13
2022-11-29T21:42:06.667Z,29.11
2022-11-29T21:44:37.256Z,29.06
2022-11-29T21:47:08.741Z,29.05
2022-11-29T21:49:39.081Z,29.09
2022-11-29T21:52:09.572Z,29.05
2022-11-29T21:54:41.023Z,29.01
2022-11-29T21:57:14.204Z,29.02
2022-11-29T21:59:47.770Z,29.01
2022-11-29T22:02:18.047Z,29.04
2022-11-29T22:04:49.383Z,29.05
2022-11-29T22:07:20.381Z,28.99
2022-11-29T22:09:53.756Z,28.98
2022-11-29T22:12:34.194Z,28.95
2022-11-29T22:15:09.279Z,28.99
2022-11-29T22:17:39.764Z,28.97
2022-11-29T22:20:10.161Z,28.93
2022-11-29T22:22:40.854Z,28.94
2022-11-29T22:25:13.598Z,28.91
2022-11-29T22:27:43.895Z,28.90
2022-11-29T22:30:14.683Z,28.93
2022-11-29T22:32:45.484Z,28.93
2022-11-29T22:35:15.918Z,28.94
2022-11-29T22:37:49.467Z,28.93
2022-11-29T22:40:20.580Z,28.93
2022-11-29T22:42:51.514Z,28.96
2022-11-29T22:45:24.796Z,28.87
2022-11-29T22:47:56.517Z,28.93
2022-11-29T22:50:27.734Z,28.94
2022-11-29T22:52:58.285Z,28.91
2022-11-29T22:55:28.828Z,28.92
2022-11-29T22:58:02.352Z,28.96
2022-11-29T23:00:33.394Z,28.98
2022-11-29T23:03:03.928Z,28.94
2022-11-29T23:05:34.652Z,29.00
2022-11-29T23:08:05.074Z,29.01
2022-11-29T23:10:37.589Z,29.02
2022-11-29T23:13:08.421Z,29.06
2022-11-29T23:15:39.015Z,29.04
2022-11-29T23:18:12.115Z,29.06
2022-11-29T23:20:42.671Z,29.05
2022-11-29T23:23:13.195Z,29.02
2022-11-29T23:25:51.142Z,29.00
2022-11-29T23:28:21.370Z,28.97
2022-11-29T23:30:52.612Z,28.94
2022-11-29T23:33:25.120Z,28.96
2022-11-29T23:36:04.105Z,29.02
2022-11-29T23:38:35.343Z,29.01
2022-11-29T23:41:07.465Z,28.95
2022-11-29T23:43:38.990Z,28.98
2022-11-29T23:46:12.932Z,29.00
2022-11-29T23:48:43.910Z,29.06
2022-11-29T23:51:15.278Z,29.13
2022-11-29T23:53:47.674Z,29.14
2022-11-29T23:56:18.950Z,29.08
2022-11-29T23:58:49.781Z,29.10
